Time;durP1;ratioP1;P1;durP2;ratioP2;P2;SDS_P1;SDS_P2;PMS_P1;PMS_P2;Temp;Humidity;BMP_temperature;BMP_pressure;BME280_temperature;BME280_humidity;BME280_pressure;Samples;Min_cycle;Max_cycle;Signal;HPM_P1;HPM_P2
2021/11/23 00:01:36;;;;;;;;;;;19.00;36.00;;;;;;478836;247;1238;-76
2021/11/23 00:03:37;;;;;;;;;;;19.30;35.80;;;;;;471743;251;1065;-76
2021/11/23 00:05:39;;;;;;;;;;;19.30;35.40;;;;;;478944;247;1011;-75
2021/11/23 00:07:40;;;;;;;;;;;19.90;35.00;;;;;;471759;251;1103;-76
2021/11/23 00:09:42;;;;;;;;;;;19.60;34.80;;;;;;478893;247;1092;-76
2021/11/23 00:11:43;;;;;;;;;;;19.40;35.20;;;;;;471694;251;1157;-76
2021/11/23 00:13:44;;;;;;;;;;;19.30;35.40;;;;;;478902;247;1021;-76
2021/11/23 00:15:46;;;;;;;;;;;19.30;35.60;;;;;;471694;251;2123;-76
2021/11/23 00:17:47;;;;;;;;;;;19.20;35.50;;;;;;478899;247;1145;-76
2021/11/23 00:19:48;;;;;;;;;;;19.20;35.50;;;;;;471744;251;952;-76
2021/11/23 00:21:50;;;;;;;;;;;19.10;35.60;;;;;;478831;247;1158;-76
2021/11/23 00:23:51;;;;;;;;;;;19.10;35.70;;;;;;471746;251;946;-76
2021/11/23 00:25:52;;;;;;;;;;;19.00;35.70;;;;;;478905;247;1172;-76
2021/11/23 00:27:54;;;;;;;;;;;19.10;35.60;;;;;;471780;251;1069;-76
2021/11/23 00:29:55;;;;;;;;;;;19.10;35.70;;;;;;478851;247;972;-76
2021/11/23 00:31:56;;;;;;;;;;;19.10;35.60;;;;;;471741;251;1059;-76
2021/11/23 00:33:58;;;;;;;;;;;19.20;35.50;;;;;;478907;245;1153;-76
2021/11/23 00:35:59;;;;;;;;;;;19.20;35.40;;;;;;471729;250;2120;-76
2021/11/23 00:38:01;;;;;;;;;;;19.40;35.20;;;;;;478899;247;942;-76
2021/11/23 00:40:02;;;;;;;;;;;19.20;35.30;;;;;;471779;251;931;-76
2021/11/23 00:42:03;;;;;;;;;;;19.10;35.50;;;;;;478826;247;929;-76
2021/11/23 00:44:04;;;;;;;;;;;19.10;35.50;;;;;;471729;251;969;-76
2021/11/23 00:46:06;;;;;;;;;;;19.10;35.50;;;;;;478769;247;943;-76
2021/11/23 00:48:07;;;;;;;;;;;19.10;35.50;;;;;;471700;251;1159;-77
2021/11/23 00:50:08;;;;;;;;;;;19.10;35.40;;;;;;478921;247;934;-76
2021/11/23 00:52:10;;;;;;;;;;;19.20;35.30;;;;;;471756;250;1010;-76
2021/11/23 00:54:11;;;;;;;;;;;19.10;35.30;;;;;;478956;247;1224;-76
2021/11/23 00:56:12;;;;;;;;;;;19.20;35.20;;;;;;471747;251;2128;-76
2021/11/23 00:58:14;;;;;;;;;;;19.10;35.20;;;;;;478865;247;1072;-76
2021/11/23 01:00:15;;;;;;;;;;;19.10;35.30;;;;;;471768;251;1111;-76
2021/11/23 01:02:17;;;;;;;;;;;19.00;35.30;;;;;;478885;247;1212;-76
2021/11/23 01:04:18;;;;;;;;;;;19.20;35.20;;;;;;471885;251;1189;-76
2021/11/23 01:06:19;;;;;;;;;;;19.10;35.20;;;;;;478785;247;1060;-76
2021/11/23 01:08:21;;;;;;;;;;;19.40;34.60;;;;;;471704;250;1092;-76
2021/11/23 01:10:22;;;;;;;;;;;19.20;34.80;;;;;;478906;247;1022;-76
2021/11/23 01:12:23;;;;;;;;;;;19.10;35.00;;;;;;471725;251;1157;-76
2021/11/23 01:14:26;;;;;;;;;;;19.10;35.00;;;;;;478922;247;1106;-76
2021/11/23 01:16:26;;;;;;;;;;;19.10;35.00;;;;;;471695;252;2195;-76
2021/11/23 01:18:27;;;;;;;;;;;19.10;35.00;;;;;;478942;247;1154;-76
2021/11/23 01:20:29;;;;;;;;;;;19.10;35.00;;;;;;471714;251;1089;-76
2021/11/23 01:22:30;;;;;;;;;;;19.00;35.00;;;;;;478796;247;1178;-76
2021/11/23 01:24:31;;;;;;;;;;;19.00;35.00;;;;;;471786;250;1066;-76
2021/11/23 01:26:33;;;;;;;;;;;19.00;35.00;;;;;;478888;247;1132;-76
2021/11/23 01:28:34;;;;;;;;;;;19.10;34.90;;;;;;471805;250;979;-76
2021/11/23 01:30:36;;;;;;;;;;;19.10;34.80;;;;;;478932;247;1023;-76
2021/11/23 01:32:37;;;;;;;;;;;18.90;34.90;;;;;;471755;251;1197;-76
2021/11/23 01:34:38;;;;;;;;;;;19.60;33.90;;;;;;478909;247;1162;-76
2021/11/23 01:36:39;;;;;;;;;;;19.30;34.30;;;;;;471622;251;2202;-76
2021/11/23 01:38:41;;;;;;;;;;;19.70;33.90;;;;;;478883;247;934;-76
2021/11/23 01:40:43;;;;;;;;;;;19.50;34.00;;;;;;471803;250;1075;-76
2021/11/23 01:42:43;;;;;;;;;;;19.30;34.30;;;;;;478893;247;1360;-76
2021/11/23 01:44:45;;;;;;;;;;;19.30;34.30;;;;;;471779;251;1008;-76
2021/11/23 01:46:46;;;;;;;;;;;19.20;34.30;;;;;;478843;247;1130;-76
2021/11/23 01:48:48;;;;;;;;;;;19.30;34.30;;;;;;471765;251;1047;-76
2021/11/23 01:50:49;;;;;;;;;;;19.30;34.10;;;;;;478781;247;1124;-76
2021/11/23 01:52:50;;;;;;;;;;;19.50;34.00;;;;;;471592;251;1172;-76
2021/11/23 01:54:52;;;;;;;;;;;19.40;33.80;;;;;;478875;247;977;-76
2021/11/23 01:56:53;;;;;;;;;;;19.50;33.70;;;;;;471769;251;2175;-77
2021/11/23 01:58:54;;;;;;;;;;;19.50;33.70;;;;;;478945;247;955;-76
2021/11/23 02:00:56;;;;;;;;;;;19.40;33.70;;;;;;471754;251;1130;-76
2021/11/23 02:02:57;;;;;;;;;;;19.60;33.80;;;;;;478867;247;1291;-76
2021/11/23 02:04:58;;;;;;;;;;;20.20;32.70;;;;;;471722;251;1198;-76
2021/11/23 02:07:00;;;;;;;;;;;19.90;33.10;;;;;;478910;247;1356;-76
2021/11/23 02:09:01;;;;;;;;;;;20.40;32.30;;;;;;471748;251;1109;-76
2021/11/23 02:11:02;;;;;;;;;;;19.90;32.80;;;;;;478851;247;1240;-76
2021/11/23 02:13:04;;;;;;;;;;;19.80;33.20;;;;;;471655;251;1135;-76
2021/11/23 02:15:05;;;;;;;;;;;19.70;33.30;;;;;;478866;247;1040;-76
2021/11/23 02:17:06;;;;;;;;;;;19.80;33.20;;;;;;471591;251;2194;-76
2021/11/23 02:19:08;;;;;;;;;;;19.70;33.30;;;;;;478815;247;1187;-76
2021/11/23 02:21:09;;;;;;;;;;;20.00;32.80;;;;;;471658;251;1001;-76
2021/11/23 02:23:11;;;;;;;;;;;19.90;33.00;;;;;;478816;247;1071;-76
2021/11/23 02:25:12;;;;;;;;;;;20.10;32.70;;;;;;471784;251;992;-76
2021/11/23 02:27:13;;;;;;;;;;;19.90;32.80;;;;;;478854;247;1216;-76
2021/11/23 02:29:14;;;;;;;;;;;19.80;32.80;;;;;;471774;251;927;-76
2021/11/23 02:31:16;;;;;;;;;;;19.70;32.90;;;;;;478784;247;1034;-76
2021/11/23 02:33:17;;;;;;;;;;;20.00;32.90;;;;;;471660;251;1026;-76
2021/11/23 02:35:19;;;;;;;;;;;20.10;32.20;;;;;;479004;247;1211;-76
2021/11/23 02:37:20;;;;;;;;;;;20.30;32.50;;;;;;471766;250;2131;-76
2021/11/23 02:39:21;;;;;;;;;;;20.40;31.90;;;;;;478987;247;1090;-76
2021/11/23 02:41:23;;;;;;;;;;;20.10;32.20;;;;;;471729;251;1104;-76
2021/11/23 02:43:24;;;;;;;;;;;20.00;32.50;;;;;;478851;247;1152;-76
2021/11/23 02:45:26;;;;;;;;;;;20.10;32.40;;;;;;471770;251;1305;-76
2021/11/23 02:47:27;;;;;;;;;;;20.00;32.40;;;;;;478920;247;1110;-76
2021/11/23 02:49:28;;;;;;;;;;;20.00;32.50;;;;;;471808;251;1159;-76
2021/11/23 02:51:33;;;;;;;;;;;19.90;32.40;;;;;;478801;247;1205;-76
2021/11/23 02:53:31;;;;;;;;;;;20.00;32.50;;;;;;471602;252;1468;-76
2021/11/23 02:55:33;;;;;;;;;;;20.00;32.30;;;;;;478964;247;1198;-76
2021/11/23 02:57:34;;;;;;;;;;;20.00;32.50;;;;;;471691;252;2198;-75
2021/11/23 02:59:35;;;;;;;;;;;19.90;32.40;;;;;;478857;247;1133;-76
2021/11/23 03:01:37;;;;;;;;;;;19.80;32.60;;;;;;471664;250;1232;-76
2021/11/23 03:03:38;;;;;;;;;;;20.60;31.80;;;;;;478889;247;1111;-76
2021/11/23 03:05:41;;;;;;;;;;;20.50;31.40;;;;;;471750;250;1219;-75
2021/11/23 03:07:41;;;;;;;;;;;20.70;31.50;;;;;;478753;247;1393;-76
2021/11/23 03:09:43;;;;;;;;;;;20.50;31.40;;;;;;471750;250;1085;-76
2021/11/23 03:11:44;;;;;;;;;;;20.20;31.80;;;;;;478948;247;1215;-76
2021/11/23 03:13:45;;;;;;;;;;;20.20;31.90;;;;;;471818;251;1040;-76
2021/11/23 03:15:47;;;;;;;;;;;20.00;32.20;;;;;;478824;247;1211;-76
2021/11/23 03:17:48;;;;;;;;;;;20.00;32.10;;;;;;471690;251;2147;-76
2021/11/23 03:19:49;;;;;;;;;;;19.90;32.30;;;;;;478831;247;1104;-76
2021/11/23 03:21:51;;;;;;;;;;;19.90;32.30;;;;;;471702;250;1232;-76
2021/11/23 03:23:52;;;;;;;;;;;19.90;32.30;;;;;;478896;247;1134;-76
2021/11/23 03:25:53;;;;;;;;;;;20.00;32.30;;;;;;471816;251;1142;-76
2021/11/23 03:27:55;;;;;;;;;;;19.90;32.10;;;;;;479011;247;1106;-76
2021/11/23 03:29:56;;;;;;;;;;;20.00;32.20;;;;;;471802;251;1152;-76
2021/11/23 03:31:57;;;;;;;;;;;20.10;31.70;;;;;;478891;247;1281;-76
2021/11/23 03:33:59;;;;;;;;;;;20.60;31.40;;;;;;471715;251;974;-76
2021/11/23 03:36:00;;;;;;;;;;;20.50;31.10;;;;;;478885;247;1168;-76
2021/11/23 03:38:01;;;;;;;;;;;21.00;30.80;;;;;;471656;251;2202;-76
2021/11/23 03:40:03;;;;;;;;;;;20.70;30.70;;;;;;478888;247;1327;-76
2021/11/23 03:42:04;;;;;;;;;;;20.30;31.40;;;;;;471811;251;949;-76
2021/11/23 03:44:05;;;;;;;;;;;20.00;31.80;;;;;;478944;247;959;-76
2021/11/23 03:46:07;;;;;;;;;;;19.90;31.90;;;;;;471763;250;952;-76
2021/11/23 03:48:08;;;;;;;;;;;20.00;31.90;;;;;;478890;247;950;-76
2021/11/23 03:50:09;;;;;;;;;;;19.90;32.00;;;;;;471739;250;1165;-76
2021/11/23 03:52:11;;;;;;;;;;;19.90;32.00;;;;;;478808;247;999;-76
2021/11/23 03:54:12;;;;;;;;;;;20.00;31.90;;;;;;471711;251;981;-76
2021/11/23 03:56:14;;;;;;;;;;;19.90;31.90;;;;;;478796;247;1082;-76
2021/11/23 03:58:15;;;;;;;;;;;19.90;32.00;;;;;;471690;251;2124;-76
2021/11/23 04:00:16;;;;;;;;;;;20.00;31.80;;;;;;478869;247;981;-76
2021/11/23 04:02:18;;;;;;;;;;;19.80;32.00;;;;;;471712;251;1057;-76
2021/11/23 04:04:19;;;;;;;;;;;20.50;31.20;;;;;;478928;247;1103;-76
2021/11/23 04:06:20;;;;;;;;;;;20.00;31.40;;;;;;471676;251;1239;-76
2021/11/23 04:08:22;;;;;;;;;;;20.80;30.70;;;;;;478822;247;1175;-76
2021/11/23 04:10:25;;;;;;;;;;;20.30;31.00;;;;;;471689;251;1184;-76
2021/11/23 04:12:24;;;;;;;;;;;20.00;31.50;;;;;;478699;248;1428;-76
2021/11/23 04:14:26;;;;;;;;;;;19.90;31.70;;;;;;471732;251;967;-76
2021/11/23 04:16:27;;;;;;;;;;;19.80;31.80;;;;;;478838;247;1204;-76
2021/11/23 04:18:28;;;;;;;;;;;19.80;31.80;;;;;;471780;251;2198;-76
2021/11/23 04:20:30;;;;;;;;;;;20.00;31.70;;;;;;478930;247;1142;-76
2021/11/23 04:22:31;;;;;;;;;;;20.00;31.70;;;;;;471776;251;1126;-76
2021/11/23 04:24:32;;;;;;;;;;;19.80;31.70;;;;;;478978;247;1443;-76
2021/11/23 04:26:34;;;;;;;;;;;19.90;31.60;;;;;;471718;251;1303;-76
2021/11/23 04:28:35;;;;;;;;;;;20.00;31.50;;;;;;478904;247;1004;-76
2021/11/23 04:30:36;;;;;;;;;;;20.00;31.50;;;;;;471742;250;954;-76
2021/11/23 04:32:38;;;;;;;;;;;19.90;31.50;;;;;;478937;247;1120;-76
2021/11/23 04:34:39;;;;;;;;;;;20.40;31.20;;;;;;471806;251;964;-76
2021/11/23 04:36:41;;;;;;;;;;;20.00;31.20;;;;;;478769;247;1282;-76
2021/11/23 04:38:42;;;;;;;;;;;20.50;30.80;;;;;;471690;251;2134;-76
2021/11/23 04:40:43;;;;;;;;;;;20.00;31.10;;;;;;478898;247;1238;-76
2021/11/23 04:42:45;;;;;;;;;;;19.90;31.40;;;;;;471676;250;1211;-76
2021/11/23 04:44:46;;;;;;;;;;;19.90;31.50;;;;;;478879;247;1135;-76
2021/11/23 04:46:47;;;;;;;;;;;20.00;31.40;;;;;;471721;250;1165;-76
2021/11/23 04:48:49;;;;;;;;;;;19.90;31.50;;;;;;478873;247;932;-76
2021/11/23 04:50:50;;;;;;;;;;;19.80;31.40;;;;;;471679;251;1164;-76
2021/11/23 04:52:51;;;;;;;;;;;19.90;31.50;;;;;;478906;247;1167;-76
2021/11/23 04:54:53;;;;;;;;;;;19.90;31.50;;;;;;471614;250;965;-76
2021/11/23 04:56:54;;;;;;;;;;;19.90;31.50;;;;;;478787;247;2183;-76
2021/11/23 04:58:55;;;;;;;;;;;19.90;31.40;;;;;;471664;251;968;-76
2021/11/23 05:00:58;;;;;;;;;;;19.80;31.30;;;;;;478797;247;1191;-76
2021/11/23 05:02:58;;;;;;;;;;;19.90;31.40;;;;;;471633;252;1356;-76
2021/11/23 05:04:59;;;;;;;;;;;20.70;30.20;;;;;;478831;247;942;-76
2021/11/23 05:07:01;;;;;;;;;;;20.20;30.70;;;;;;471546;251;1227;-76
2021/11/23 05:09:02;;;;;;;;;;;20.60;30.20;;;;;;477969;247;1991;-76
2021/11/23 05:11:04;;;;;;;;;;;20.20;30.60;;;;;;471648;250;1221;-76
2021/11/23 05:13:05;;;;;;;;;;;20.10;30.90;;;;;;478929;247;1220;-76
2021/11/23 05:15:06;;;;;;;;;;;20.00;31.10;;;;;;471696;251;942;-76
2021/11/23 05:17:08;;;;;;;;;;;19.90;31.10;;;;;;478801;247;2144;-76
2021/11/23 05:19:09;;;;;;;;;;;19.90;31.10;;;;;;471703;251;1030;-76
2021/11/23 05:21:11;;;;;;;;;;;20.10;31.10;;;;;;478746;247;1282;-76
2021/11/23 05:23:11;;;;;;;;;;;20.10;30.70;;;;;;471580;251;1197;-76
2021/11/23 05:25:13;;;;;;;;;;;20.10;30.90;;;;;;478829;247;1065;-76
2021/11/23 05:27:14;;;;;;;;;;;20.00;30.80;;;;;;471638;251;1120;-76
2021/11/23 05:29:15;;;;;;;;;;;20.00;31.00;;;;;;478906;247;1026;-76
2021/11/23 05:31:17;;;;;;;;;;;20.00;30.80;;;;;;471580;251;1199;-76
2021/11/23 05:33:18;;;;;;;;;;;20.10;30.90;;;;;;478755;247;1173;-76
2021/11/23 05:35:20;;;;;;;;;;;20.50;30.20;;;;;;471619;251;1205;-76
2021/11/23 05:37:21;;;;;;;;;;;20.20;30.70;;;;;;478739;247;2198;-76
2021/11/23 05:39:22;;;;;;;;;;;20.60;30.00;;;;;;471560;251;1153;-76
2021/11/23 05:41:24;;;;;;;;;;;20.20;30.40;;;;;;478673;247;1302;-76
2021/11/23 05:43:25;;;;;;;;;;;20.00;30.70;;;;;;471588;251;1276;-76
2021/11/23 05:45:26;;;;;;;;;;;20.10;30.50;;;;;;478655;247;1054;-76
2021/11/23 05:47:27;;;;;;;;;;;19.90;30.80;;;;;;471026;251;1250;-76
2021/11/23 05:49:29;;;;;;;;;;;20.10;30.60;;;;;;478770;247;997;-76
2021/11/23 05:51:30;;;;;;;;;;;19.90;30.80;;;;;;471406;251;1112;-76
2021/11/23 05:53:32;;;;;;;;;;;20.00;30.70;;;;;;478530;247;1165;-77
2021/11/23 05:55:33;;;;;;;;;;;20.00;30.60;;;;;;471447;251;1015;-76
2021/11/23 05:57:35;;;;;;;;;;;20.00;30.80;;;;;;478569;247;2120;-76
2021/11/23 05:59:36;;;;;;;;;;;20.00;30.70;;;;;;471532;251;1283;-76
2021/11/23 06:01:37;;;;;;;;;;;19.80;30.90;;;;;;478759;247;1203;-76
2021/11/23 06:03:39;;;;;;;;;;;20.30;30.80;;;;;;471617;251;1105;-77
2021/11/23 06:05:40;;;;;;;;;;;20.50;30.00;;;;;;478799;247;1151;-77
2021/11/23 06:07:41;;;;;;;;;;;20.70;30.20;;;;;;471534;251;1137;-76
2021/11/23 06:09:43;;;;;;;;;;;20.60;29.80;;;;;;478691;247;1324;-76
2021/11/23 06:11:44;;;;;;;;;;;20.20;30.20;;;;;;471747;250;1205;-76
2021/11/23 06:13:45;;;;;;;;;;;20.00;30.50;;;;;;478079;247;1164;-76
2021/11/23 06:15:47;;;;;;;;;;;20.50;30.10;;;;;;471389;251;1494;-76
2021/11/23 06:17:51;;;;;;;;;;;20.40;30.20;;;;;;478850;247;2136;-76
2021/11/23 06:19:50;;;;;;;;;;;20.70;30.00;;;;;;471366;252;1413;-76
2021/11/23 06:21:51;;;;;;;;;;;20.60;29.90;;;;;;478779;247;1131;-76
2021/11/23 06:23:53;;;;;;;;;;;20.60;30.00;;;;;;471503;251;1141;-76
2021/11/23 06:25:54;;;;;;;;;;;20.70;29.80;;;;;;478694;247;1267;-76
2021/11/23 06:27:55;;;;;;;;;;;20.60;29.80;;;;;;471447;251;1115;-76
2021/11/23 06:29:58;;;;;;;;;;;20.60;29.90;;;;;;478698;247;1035;-77
2021/11/23 06:31:58;;;;;;;;;;;20.50;30.00;;;;;;471144;252;1352;-75
2021/11/23 06:34:00;;;;;;;;;;;20.80;29.90;;;;;;478360;247;1046;-76
2021/11/23 06:36:01;;;;;;;;;;;20.60;29.70;;;;;;471459;250;1515;-76
2021/11/23 06:38:02;;;;;;;;;;;20.80;29.90;;;;;;478508;247;2191;-76
2021/11/23 06:40:04;;;;;;;;;;;20.70;29.60;;;;;;471346;251;1101;-76
2021/11/23 06:42:05;;;;;;;;;;;20.50;29.90;;;;;;478580;247;1136;-76
2021/11/23 06:44:07;;;;;;;;;;;20.50;29.90;;;;;;471395;250;1102;-75
2021/11/23 06:46:08;;;;;;;;;;;20.40;30.00;;;;;;478584;248;1402;-76
2021/11/23 06:48:10;;;;;;;;;;;20.40;29.90;;;;;;471340;251;1055;-75
2021/11/23 06:50:10;;;;;;;;;;;20.30;30.10;;;;;;478631;248;1541;-76
2021/11/23 06:52:12;;;;;;;;;;;20.30;29.90;;;;;;471265;251;1132;-75
2021/11/23 06:54:13;;;;;;;;;;;20.40;30.10;;;;;;478416;247;1194;-77
2021/11/23 06:56:15;;;;;;;;;;;20.60;29.90;;;;;;471329;251;1240;-76
2021/11/23 06:58:17;;;;;;;;;;;20.50;30.10;;;;;;478389;247;2112;-76
2021/11/23 07:00:18;;;;;;;;;;;20.50;29.90;;;;;;471269;251;1495;-77
2021/11/23 07:02:19;;;;;;;;;;;20.30;30.00;;;;;;478387;247;1601;-76
2021/11/23 07:04:20;;;;;;;;;;;21.00;29.70;;;;;;471300;251;1188;-76
2021/11/23 07:06:22;;;;;;;;;;;20.50;29.80;;;;;;478398;247;1093;-76
2021/11/23 07:08:23;;;;;;;;;;;20.90;29.70;;;;;;471280;250;1207;-76
2021/11/23 07:10:24;;;;;;;;;;;20.70;29.60;;;;;;478396;247;1011;-75
2021/11/23 07:12:25;;;;;;;;;;;20.50;30.00;;;;;;471177;251;1193;-76
2021/11/23 07:14:27;;;;;;;;;;;20.30;30.00;;;;;;478114;247;1285;-76
2021/11/23 07:16:28;;;;;;;;;;;20.30;30.00;;;;;;471131;251;1214;-76
2021/11/23 07:18:30;;;;;;;;;;;20.30;30.20;;;;;;478098;247;2198;-76
2021/11/23 07:20:31;;;;;;;;;;;20.30;30.00;;;;;;471198;251;1021;-76
2021/11/23 07:22:32;;;;;;;;;;;20.60;29.90;;;;;;478137;247;1015;-76
2021/11/23 07:24:33;;;;;;;;;;;20.50;30.00;;;;;;471202;251;1126;-76
2021/11/23 07:26:37;;;;;;;;;;;20.50;29.90;;;;;;478224;247;1225;-76
2021/11/23 07:28:36;;;;;;;;;;;20.40;30.00;;;;;;471062;252;1318;-76
2021/11/23 07:30:38;;;;;;;;;;;20.60;29.90;;;;;;478326;247;970;-76
2021/11/23 07:32:39;;;;;;;;;;;20.40;29.80;;;;;;471174;251;1073;-77
2021/11/23 07:34:40;;;;;;;;;;;21.00;29.60;;;;;;478257;247;1037;-76
2021/11/23 07:36:42;;;;;;;;;;;20.40;29.80;;;;;;471087;250;1405;-76
2021/11/23 07:38:43;;;;;;;;;;;21.00;29.50;;;;;;478308;247;2201;-77
2021/11/23 07:40:46;;;;;;;;;;;20.90;29.50;;;;;;471154;251;1225;-76
2021/11/23 07:42:46;;;;;;;;;;;20.50;29.80;;;;;;478345;247;1450;-76
2021/11/23 07:44:48;;;;;;;;;;;20.80;29.80;;;;;;471101;251;1068;-76
2021/11/23 07:46:49;;;;;;;;;;;20.70;29.80;;;;;;478141;247;1142;-76
2021/11/23 07:48:50;;;;;;;;;;;20.50;29.80;;;;;;471098;250;1107;-76
2021/11/23 07:50:51;;;;;;;;;;;20.70;29.80;;;;;;478193;247;964;-77
2021/11/23 07:52:53;;;;;;;;;;;20.50;29.80;;;;;;470757;251;1176;-77
2021/11/23 07:54:54;;;;;;;;;;;20.50;29.80;;;;;;478259;247;1111;-76
2021/11/23 07:56:55;;;;;;;;;;;20.70;29.70;;;;;;471219;250;1498;-76
2021/11/23 07:58:57;;;;;;;;;;;20.40;29.90;;;;;;477897;247;2178;-76
2021/11/23 08:00:58;;;;;;;;;;;20.50;29.80;;;;;;470697;250;1152;-76
2021/11/23 08:02:59;;;;;;;;;;;20.20;30.00;;;;;;478093;247;1120;-76
2021/11/23 08:05:01;;;;;;;;;;;20.70;29.60;;;;;;471298;251;892;-76
2021/11/23 08:07:02;;;;;;;;;;;20.40;30.00;;;;;;478608;247;1162;-77
2021/11/23 08:09:05;;;;;;;;;;;20.90;29.40;;;;;;471666;251;1104;-76
2021/11/23 08:11:05;;;;;;;;;;;20.40;29.80;;;;;;478080;247;1417;-76
2021/11/23 08:13:06;;;;;;;;;;;20.80;29.60;;;;;;471045;250;1167;-76
2021/11/23 08:15:08;;;;;;;;;;;20.60;29.70;;;;;;478167;247;1154;-76
2021/11/23 08:17:09;;;;;;;;;;;20.30;29.90;;;;;;471198;250;1123;-76
2021/11/23 08:19:10;;;;;;;;;;;20.40;29.90;;;;;;478290;247;2186;-76
2021/11/23 08:21:12;;;;;;;;;;;20.30;30.00;;;;;;471205;250;1065;-76
2021/11/23 08:23:13;;;;;;;;;;;20.40;29.90;;;;;;478732;247;1065;-76
2021/11/23 08:25:15;;;;;;;;;;;20.50;30.00;;;;;;471155;251;1197;-76
2021/11/23 08:27:16;;;;;;;;;;;20.30;29.90;;;;;;478167;247;1100;-76
2021/11/23 08:29:17;;;;;;;;;;;20.40;30.00;;;;;;471029;250;1169;-77
2021/11/23 08:31:19;;;;;;;;;;;20.60;29.80;;;;;;478090;247;1152;-76
2021/11/23 08:33:20;;;;;;;;;;;20.40;30.00;;;;;;471081;251;1362;-76
2021/11/23 08:35:21;;;;;;;;;;;20.70;29.50;;;;;;478084;247;1189;-76
2021/11/23 08:37:26;;;;;;;;;;;20.40;30.00;;;;;;471065;251;1321;-76
2021/11/23 08:39:24;;;;;;;;;;;20.60;29.60;;;;;;478380;248;2190;-76
2021/11/23 08:41:26;;;;;;;;;;;20.30;30.00;;;;;;470937;249;1226;-76
2021/11/23 08:43:26;;;;;;;;;;;20.30;29.90;;;;;;478110;247;1151;-76
2021/11/23 08:45:28;;;;;;;;;;;20.30;30.00;;;;;;470932;251;1076;-76
2021/11/23 08:47:29;;;;;;;;;;;20.50;30.00;;;;;;478126;247;1138;-76
2021/11/23 08:49:30;;;;;;;;;;;20.60;29.80;;;;;;470892;250;988;-76
2021/11/23 08:51:35;;;;;;;;;;;20.60;29.80;;;;;;478065;247;1520;-76
2021/11/23 08:53:33;;;;;;;;;;;20.80;29.60;;;;;;470651;252;1451;-76
2021/11/23 08:55:35;;;;;;;;;;;20.50;29.90;;;;;;477950;247;1198;-76
2021/11/23 08:57:36;;;;;;;;;;;20.40;29.70;;;;;;471171;251;1083;-76
2021/11/23 08:59:39;;;;;;;;;;;20.30;30.00;;;;;;478322;247;2200;-76
2021/11/23 09:01:39;;;;;;;;;;;20.30;30.00;;;;;;471047;252;1288;-75
2021/11/23 09:03:41;;;;;;;;;;;20.60;29.90;;;;;;477938;247;1251;-73
2021/11/23 09:05:44;;;;;;;;;;;20.60;29.60;;;;;;470762;251;1408;-74
2021/11/23 09:07:43;;;;;;;;;;;20.70;29.90;;;;;;477976;248;1358;-74
2021/11/23 09:09:44;;;;;;;;;;;21.10;29.40;;;;;;470950;250;1149;-74
2021/11/23 09:11:45;;;;;;;;;;;20.60;29.80;;;;;;478020;247;1231;-74
2021/11/23 09:13:47;;;;;;;;;;;20.50;30.00;;;;;;470880;251;1017;-74
2021/11/23 09:15:48;;;;;;;;;;;20.70;29.80;;;;;;478057;247;999;-74
2021/11/23 09:17:50;;;;;;;;;;;20.60;29.90;;;;;;470946;251;1088;-74
2021/11/23 09:19:51;;;;;;;;;;;20.70;29.90;;;;;;478057;247;2115;-74
2021/11/23 09:21:52;;;;;;;;;;;20.70;29.80;;;;;;470873;251;1370;-74
2021/11/23 09:23:53;;;;;;;;;;;20.60;30.00;;;;;;478092;247;981;-74
2021/11/23 09:25:55;;;;;;;;;;;20.50;30.00;;;;;;470879;251;1209;-74
2021/11/23 09:27:59;;;;;;;;;;;20.70;30.00;;;;;;477894;247;1014;-74
2021/11/23 09:29:59;;;;;;;;;;;20.40;30.10;;;;;;470693;252;1425;-75
2021/11/23 09:31:59;;;;;;;;;;;20.40;30.10;;;;;;478085;247;1389;-74
2021/11/23 09:34:00;;;;;;;;;;;20.70;30.00;;;;;;470895;251;1152;-74
2021/11/23 09:36:02;;;;;;;;;;;20.70;29.90;;;;;;478033;247;1208;-73
2021/11/23 09:38:03;;;;;;;;;;;20.90;29.90;;;;;;470890;251;1215;-74
2021/11/23 09:40:05;;;;;;;;;;;21.20;29.60;;;;;;477980;247;2186;-74
2021/11/23 09:42:06;;;;;;;;;;;20.90;29.70;;;;;;471031;251;1101;-74
2021/11/23 09:44:07;;;;;;;;;;;20.70;30.00;;;;;;478008;247;1079;-74
2021/11/23 09:46:09;;;;;;;;;;;20.60;30.00;;;;;;470966;251;1465;-74
2021/11/23 09:48:10;;;;;;;;;;;20.60;30.00;;;;;;478377;247;1040;-74
2021/11/23 09:50:11;;;;;;;;;;;20.80;29.90;;;;;;470997;251;979;-74
2021/11/23 09:52:13;;;;;;;;;;;20.70;29.90;;;;;;478094;247;1164;-74
2021/11/23 09:54:14;;;;;;;;;;;20.60;30.00;;;;;;470872;251;1126;-73
2021/11/23 09:56:15;;;;;;;;;;;20.70;30.00;;;;;;478102;247;1271;-74
2021/11/23 09:58:17;;;;;;;;;;;20.70;30.00;;;;;;471006;251;1136;-74
2021/11/23 10:00:18;;;;;;;;;;;20.90;30.00;;;;;;477972;247;2108;-76
2021/11/23 10:02:19;;;;;;;;;;;20.50;30.10;;;;;;470800;251;1126;-74
2021/11/23 10:04:21;;;;;;;;;;;21.10;29.90;;;;;;477991;247;1045;-62
2021/11/23 10:06:23;;;;;;;;;;;20.60;30.00;;;;;;470998;251;1136;-78
2021/11/23 10:08:24;;;;;;;;;;;20.80;30.00;;;;;;478231;247;1385;-78
2021/11/23 10:10:27;;;;;;;;;;;20.60;30.00;;;;;;471184;251;1166;-78
2021/11/23 10:12:26;;;;;;;;;;;20.20;30.50;;;;;;478164;248;1371;-78
2021/11/23 10:14:27;;;;;;;;;;;20.30;30.50;;;;;;471045;251;1100;-78
2021/11/23 10:16:29;;;;;;;;;;;20.30;30.60;;;;;;478336;247;1234;-78
2021/11/23 10:18:30;;;;;;;;;;;20.30;30.60;;;;;;471222;251;962;-78
2021/11/23 10:20:32;;;;;;;;;;;20.10;31.00;;;;;;478436;247;2205;-79
2021/11/23 10:22:33;;;;;;;;;;;20.10;30.90;;;;;;471046;251;1108;-78
2021/11/23 10:24:34;;;;;;;;;;;20.10;31.20;;;;;;478176;247;1072;-78
2021/11/23 10:26:35;;;;;;;;;;;19.90;31.40;;;;;;471147;251;1206;-78
2021/11/23 10:28:37;;;;;;;;;;;20.30;31.00;;;;;;478310;247;978;-78
2021/11/23 10:30:39;;;;;;;;;;;20.20;31.10;;;;;;471044;251;1129;-78
2021/11/23 10:32:40;;;;;;;;;;;20.10;30.90;;;;;;478272;247;1396;-78
2021/11/23 10:34:41;;;;;;;;;;;20.70;30.50;;;;;;471231;251;988;-78
2021/11/23 10:36:43;;;;;;;;;;;20.10;30.80;;;;;;478189;247;1132;-78
2021/11/23 10:38:44;;;;;;;;;;;20.50;30.70;;;;;;471306;251;809;-78
2021/11/23 10:40:45;;;;;;;;;;;20.00;31.20;;;;;;478372;247;2183;-78
2021/11/23 10:42:47;;;;;;;;;;;20.00;31.40;;;;;;471371;251;1015;-78
2021/11/23 10:44:48;;;;;;;;;;;19.90;31.60;;;;;;478155;247;974;-78
2021/11/23 10:46:49;;;;;;;;;;;19.80;31.60;;;;;;471151;251;1276;-78
2021/11/23 10:48:51;;;;;;;;;;;20.00;31.50;;;;;;478555;247;857;-78
2021/11/23 10:50:52;;;;;;;;;;;19.90;31.60;;;;;;471245;251;839;-78
2021/11/23 10:52:54;;;;;;;;;;;20.00;31.40;;;;;;478408;247;1111;-78
2021/11/23 10:54:56;;;;;;;;;;;19.90;31.60;;;;;;471770;250;812;-77
2021/11/23 10:56:57;;;;;;;;;;;20.00;31.60;;;;;;478332;247;1262;-78
2021/11/23 10:58:58;;;;;;;;;;;20.00;31.80;;;;;;471635;251;769;-78
2021/11/23 11:00:59;;;;;;;;;;;20.00;31.50;;;;;;478410;247;2206;-78
2021/11/23 11:03:02;;;;;;;;;;;19.90;31.70;;;;;;471224;251;1155;-77
2021/11/23 11:05:03;;;;;;;;;;;20.60;30.90;;;;;;478235;248;1460;-77
2021/11/23 11:07:04;;;;;;;;;;;20.10;31.40;;;;;;470974;250;1229;-77
2021/11/23 11:09:05;;;;;;;;;;;20.60;31.00;;;;;;478011;247;1144;-78
2021/11/23 11:11:07;;;;;;;;;;;20.30;31.10;;;;;;470916;251;1251;-78
2021/11/23 11:13:08;;;;;;;;;;;20.00;31.60;;;;;;478051;247;1105;-78
2021/11/23 11:15:09;;;;;;;;;;;19.90;31.90;;;;;;471071;251;1000;-78
2021/11/23 11:17:10;;;;;;;;;;;19.80;32.20;;;;;;478396;247;1072;-78
2021/11/23 11:19:12;;;;;;;;;;;19.70;32.20;;;;;;471232;251;2210;-78
2021/11/23 11:21:13;;;;;;;;;;;19.70;32.40;;;;;;478266;247;963;-78
2021/11/23 11:23:15;;;;;;;;;;;19.70;32.20;;;;;;470983;250;1072;-78
2021/11/23 11:25:22;;;;;;;;;;;19.60;32.50;;;;;;478127;247;992;-78
2021/11/23 11:27:17;;;;;;;;;;;19.60;32.30;;;;;;471078;252;1463;-78
2021/11/23 11:29:18;;;;;;;;;;;19.60;32.50;;;;;;479023;247;949;-78
2021/11/23 11:31:20;;;;;;;;;;;19.60;32.40;;;;;;471442;251;1128;-78
2021/11/23 11:33:24;;;;;;;;;;;19.60;32.60;;;;;;478381;247;963;-78
2021/11/23 11:35:24;;;;;;;;;;;20.10;31.60;;;;;;471404;252;1314;-78
2021/11/23 11:37:25;;;;;;;;;;;19.90;32.10;;;;;;478551;247;1339;-78
2021/11/23 11:39:26;;;;;;;;;;;20.30;31.40;;;;;;471323;251;2195;-78
2021/11/23 11:41:27;;;;;;;;;;;20.00;31.70;;;;;;478469;247;1192;-78
2021/11/23 11:43:29;;;;;;;;;;;19.70;32.30;;;;;;471168;249;1193;-78
2021/11/23 11:45:31;;;;;;;;;;;19.70;32.50;;;;;;478319;247;1193;-78
2021/11/23 11:47:32;;;;;;;;;;;19.50;32.50;;;;;;471085;252;1405;-78
2021/11/23 11:49:33;;;;;;;;;;;19.70;32.50;;;;;;478172;247;1137;-78
2021/11/23 11:51:40;;;;;;;;;;;19.50;32.60;;;;;;471155;251;1135;-78
2021/11/23 11:53:36;;;;;;;;;;;19.50;32.80;;;;;;478073;248;1420;-78
2021/11/23 11:55:37;;;;;;;;;;;19.40;32.90;;;;;;471264;251;1191;-78
2021/11/23 11:57:38;;;;;;;;;;;19.60;32.90;;;;;;478365;247;1158;-78